createdAt,value
2022-12-18T00:01:29.186Z,9.43
2022-12-18T00:03:57.594Z,9.75
2022-12-18T00:06:27.448Z,8.40
2022-12-18T00:08:57.912Z,9.75
2022-12-18T00:11:28.379Z,8.60
2022-12-18T00:13:58.070Z,8.63
2022-12-18T00:16:28.178Z,9.68
2022-12-18T00:18:57.515Z,8.98
2022-12-18T00:21:25.771Z,6.88
2022-12-18T00:23:53.662Z,8.57
2022-12-18T00:26:25.011Z,7.38
2022-12-18T00:29:18.561Z,7.72
2022-12-18T00:31:46.377Z,8.43
2022-12-18T00:34:14.569Z,8.60
2022-12-18T00:36:42.693Z,10.30
2022-12-18T00:39:13.165Z,8.93
2022-12-18T00:42:09.966Z,9.02
2022-12-18T00:44:39.043Z,9.18
2022-12-18T00:47:06.688Z,9.15
2022-12-18T00:49:34.533Z,8.18
2022-12-18T00:52:02.409Z,8.23
2022-12-18T00:54:30.098Z,8.57
2022-12-18T00:56:58.090Z,11.13
2022-12-18T00:59:27.261Z,9.75
2022-12-18T01:01:55.292Z,9.10
2022-12-18T01:04:23.046Z,12.68
2022-12-18T01:06:50.853Z,10.32
2022-12-18T01:09:18.660Z,10.15
2022-12-18T01:11:46.379Z,9.80
2022-12-18T01:14:14.117Z,10.27
2022-12-18T01:16:42.028Z,9.25
2022-12-18T01:19:10.058Z,11.02
2022-12-18T01:21:37.818Z,10.52
2022-12-18T01:24:06.360Z,8.85
2022-12-18T01:26:35.196Z,9.27
2022-12-18T01:29:02.964Z,9.00
2022-12-18T01:31:34.128Z,9.35
2022-12-18T01:34:06.551Z,9.25
2022-12-18T01:36:38.357Z,8.10
2022-12-18T01:39:13.954Z,10.57
2022-12-18T01:42:02.125Z,11.65
2022-12-18T01:44:55.525Z,9.88
2022-12-18T01:47:29.042Z,10.65
2022-12-18T01:49:59.610Z,9.70
2022-12-18T01:52:33.017Z,9.30
2022-12-18T01:55:02.951Z,9.48
2022-12-18T01:57:30.994Z,8.15
2022-12-18T02:00:02.949Z,7.38
2022-12-18T02:02:43.202Z,8.40
2022-12-18T02:05:13.994Z,8.82
2022-12-18T02:08:11.718Z,7.70
2022-12-18T02:11:05.906Z,7.32
2022-12-18T02:13:57.268Z,7.93
2022-12-18T02:16:44.760Z,8.70
2022-12-18T02:19:31.294Z,6.70
2022-12-18T02:22:17.292Z,6.80
2022-12-18T02:25:20.456Z,6.47
2022-12-18T02:27:50.520Z,6.68
2022-12-18T02:30:20.292Z,7.22
2022-12-18T02:32:53.784Z,6.68
2022-12-18T02:35:28.995Z,7.10
2022-12-18T02:38:00.021Z,5.47
2022-12-18T02:40:31.748Z,6.47
2022-12-18T02:43:12.499Z,5.70
2022-12-18T02:45:51.887Z,6.55
2022-12-18T02:48:33.978Z,5.53
2022-12-18T02:51:17.670Z,6.68
2022-12-18T02:53:57.684Z,6.25
2022-12-18T02:56:40.354Z,6.63
2022-12-18T02:59:20.050Z,6.07
2022-12-18T03:02:24.134Z,6.65
2022-12-18T03:05:02.347Z,4.88
2022-12-18T03:08:18.590Z,5.68
2022-12-18T03:10:55.400Z,4.75
2022-12-18T03:13:36.377Z,4.68
2022-12-18T03:16:09.421Z,6.68
2022-12-18T03:18:49.883Z,5.15
2022-12-18T03:21:22.914Z,4.00
2022-12-18T03:23:54.121Z,5.82
2022-12-18T03:26:27.739Z,4.63
2022-12-18T03:29:06.368Z,4.43
2022-12-18T03:31:36.275Z,4.78
2022-12-18T03:34:10.954Z,5.65
2022-12-18T03:36:45.086Z,4.70
2022-12-18T03:39:14.956Z,4.80
2022-12-18T03:42:22.725Z,6.25
2022-12-18T03:45:04.138Z,4.43
2022-12-18T03:47:51.368Z,5.50
2022-12-18T03:50:31.208Z,4.82
2022-12-18T03:53:17.790Z,5.07
2022-12-18T03:55:50.754Z,4.45
2022-12-18T03:58:26.633Z,5.10
2022-12-18T04:01:11.189Z,5.47
2022-12-18T04:03:42.866Z,3.95
2022-12-18T04:06:12.230Z,4.88
2022-12-18T04:08:42.714Z,4.53
2022-12-18T04:11:13.302Z,4.93
2022-12-18T04:13:43.716Z,4.28
2022-12-18T04:16:19.089Z,5.40
2022-12-18T04:18:48.049Z,3.80
2022-12-18T04:21:16.450Z,4.25
2022-12-18T04:23:44.539Z,4.75
2022-12-18T04:26:12.342Z,6.18
2022-12-18T04:29:02.690Z,5.53
2022-12-18T04:31:30.785Z,5.82
2022-12-18T04:33:59.188Z,4.70
2022-12-18T04:36:27.616Z,4.72
2022-12-18T04:38:56.633Z,5.28
2022-12-18T04:41:24.549Z,4.70
2022-12-18T04:43:54.177Z,5.05
2022-12-18T04:46:23.322Z,4.68
2022-12-18T04:48:51.194Z,5.38
2022-12-18T04:51:23.301Z,5.35
2022-12-18T04:53:55.037Z,5.07
2022-12-18T04:56:23.034Z,3.75
2022-12-18T04:58:51.262Z,4.45
2022-12-18T05:01:20.212Z,4.95
2022-12-18T05:03:48.369Z,4.43
2022-12-18T05:06:16.078Z,4.72
2022-12-18T05:08:43.835Z,4.68
2022-12-18T05:11:17.909Z,5.90
2022-12-18T05:13:46.706Z,4.50
2022-12-18T05:16:14.943Z,5.80
2022-12-18T05:18:43.144Z,4.35
2022-12-18T05:21:10.917Z,4.53
2022-12-18T05:23:39.056Z,4.65
2022-12-18T05:26:08.990Z,4.20
2022-12-18T05:28:37.522Z,4.47
2022-12-18T05:31:06.433Z,4.80
2022-12-18T05:33:36.107Z,5.13
2022-12-18T05:36:07.373Z,4.22
2022-12-18T05:38:38.139Z,3.80
2022-12-18T05:41:06.767Z,6.75
2022-12-18T05:43:40.246Z,4.55
2022-12-18T05:46:12.413Z,5.22
2022-12-18T05:48:40.144Z,44.35
2022-12-18T05:51:17.807Z,55.80
2022-12-18T05:53:46.548Z,55.03
2022-12-18T05:56:16.904Z,40.05
2022-12-18T05:58:46.845Z,22.00
2022-12-18T06:01:18.330Z,18.98
2022-12-18T06:03:47.439Z,15.68
2022-12-18T06:06:25.545Z,20.50
2022-12-18T06:08:54.784Z,12.73
2022-12-18T06:11:25.905Z,9.70
2022-12-18T06:13:59.310Z,8.48
2022-12-18T06:16:28.944Z,10.02
2022-12-18T06:19:02.367Z,9.02
2022-12-18T06:21:30.497Z,7.47
2022-12-18T06:23:59.590Z,7.43
2022-12-18T06:26:28.618Z,8.70
2022-12-18T06:28:58.598Z,7.20
2022-12-18T06:31:27.300Z,6.40
2022-12-18T06:33:55.319Z,8.55
2022-12-18T06:36:23.365Z,8.27
2022-12-18T06:38:51.072Z,6.65
2022-12-18T06:41:21.987Z,7.40
2022-12-18T06:43:50.255Z,9.40
2022-12-18T06:46:18.041Z,6.90
2022-12-18T06:48:50.080Z,5.32
2022-12-18T06:51:19.838Z,6.53
2022-12-18T06:53:47.938Z,6.50
2022-12-18T06:56:15.812Z,6.03
2022-12-18T06:58:43.834Z,5.78
2022-12-18T07:01:13.607Z,6.00
2022-12-18T07:03:43.005Z,5.97
2022-12-18T07:06:19.883Z,5.43
2022-12-18T07:08:48.964Z,5.85
2022-12-18T07:11:17.873Z,5.63
2022-12-18T07:13:46.704Z,7.30
2022-12-18T07:16:24.779Z,6.00
2022-12-18T07:18:55.818Z,8.73
2022-12-18T07:21:25.613Z,9.02
2022-12-18T07:23:53.892Z,6.82
2022-12-18T07:26:22.728Z,6.30
2022-12-18T07:28:51.027Z,6.88
2022-12-18T07:31:21.523Z,6.50
2022-12-18T07:33:50.837Z,7.15
2022-12-18T07:36:18.976Z,6.07
2022-12-18T07:38:50.734Z,5.78
2022-12-18T07:41:19.749Z,6.20
2022-12-18T07:43:48.415Z,8.13
2022-12-18T07:46:17.355Z,17.73
2022-12-18T07:48:49.301Z,18.23
2022-12-18T07:51:18.586Z,16.02
2022-12-18T07:53:46.323Z,14.60
2022-12-18T07:56:32.134Z,9.90
2022-12-18T07:59:00.238Z,8.50
2022-12-18T08:01:31.203Z,9.63
2022-12-18T08:03:59.843Z,7.20
2022-12-18T08:06:27.539Z,6.13
2022-12-18T08:08:57.036Z,14.63
2022-12-18T08:11:26.719Z,18.23
2022-12-18T08:13:55.281Z,23.45
2022-12-18T08:16:24.128Z,20.48
2022-12-18T08:18:54.055Z,13.30
2022-12-18T08:21:28.077Z,14.05
2022-12-18T08:23:58.276Z,15.27
2022-12-18T08:26:29.825Z,10.18
2022-12-18T08:28:59.050Z,10.23
2022-12-18T08:31:28.608Z,12.32
2022-12-18T08:33:57.847Z,10.13
2022-12-18T08:36:26.453Z,12.55
2022-12-18T08:38:55.299Z,9.32
2022-12-18T08:41:23.800Z,8.60
2022-12-18T08:44:10.742Z,12.77
2022-12-18T08:46:41.487Z,9.03
2022-12-18T08:49:11.021Z,10.20
2022-12-18T08:51:40.299Z,11.27
2022-12-18T08:54:10.641Z,9.82
2022-12-18T08:56:38.639Z,10.23
2022-12-18T08:59:06.475Z,9.82
2022-12-18T09:01:34.406Z,11.80
2022-12-18T09:04:03.420Z,12.40
2022-12-18T09:06:32.270Z,9.40
2022-12-18T09:09:01.133Z,9.63
2022-12-18T09:11:30.802Z,10.13
2022-12-18T09:14:00.537Z,9.85
2022-12-18T09:16:32.403Z,11.45
2022-12-18T09:19:01.515Z,13.30
2022-12-18T09:21:34.412Z,11.20
2022-12-18T09:24:06.945Z,9.38
2022-12-18T09:26:37.765Z,8.38
2022-12-18T09:29:08.305Z,8.05
2022-12-18T09:31:37.341Z,10.50
2022-12-18T09:34:07.082Z,9.73
2022-12-18T09:36:35.378Z,13.85
2022-12-18T09:39:08.108Z,8.93
2022-12-18T09:41:44.747Z,8.10
2022-12-18T09:44:44.448Z,9.85
2022-12-18T09:47:19.336Z,10.57
2022-12-18T09:49:50.727Z,14.68
2022-12-18T09:52:48.516Z,14.10
2022-12-18T09:55:38.855Z,15.80
2022-12-18T09:58:23.217Z,18.77
2022-12-18T10:00:53.480Z,20.88
2022-12-18T10:03:22.173Z,19.23
2022-12-18T10:06:09.324Z,16.02
2022-12-18T10:08:44.465Z,12.00
2022-12-18T10:11:30.424Z,9.82
2022-12-18T10:14:31.778Z,10.82
2022-12-18T10:16:59.386Z,11.13
2022-12-18T10:19:50.519Z,14.40
2022-12-18T10:22:53.737Z,12.80
2022-12-18T10:25:32.508Z,12.85
2022-12-18T10:28:11.719Z,12.98
2022-12-18T10:30:41.356Z,12.55
2022-12-18T10:33:16.576Z,13.07
2022-12-18T10:35:46.568Z,11.07
2022-12-18T10:38:14.161Z,12.75
2022-12-18T10:40:58.212Z,13.05
2022-12-18T10:43:30.694Z,12.95
2022-12-18T10:46:04.760Z,11.40
2022-12-18T10:48:34.417Z,12.20
2022-12-18T10:51:10.911Z,16.88
2022-12-18T10:53:44.003Z,15.05
2022-12-18T10:56:13.201Z,12.95
2022-12-18T10:58:41.717Z,13.70
2022-12-18T11:01:14.435Z,14.55
2022-12-18T11:04:03.365Z,17.58
2022-12-18T11:06:33.893Z,14.30
2022-12-18T11:09:12.301Z,12.30
2022-12-18T11:11:41.118Z,10.48
2022-12-18T11:14:24.254Z,10.65
2022-12-18T11:19:42.557Z,9.52
2022-12-18T11:22:33.447Z,7.78
2022-12-18T11:25:32.480Z,11.95
2022-12-18T11:28:06.977Z,8.55
2022-12-18T11:30:37.991Z,8.10
2022-12-18T11:33:05.767Z,12.43
2022-12-18T11:35:50.153Z,11.75
2022-12-18T11:38:27.312Z,9.27
2022-12-18T11:43:51.245Z,14.45
2022-12-18T11:46:28.568Z,12.15
2022-12-18T11:49:11.650Z,12.73
2022-12-18T11:52:19.764Z,9.82
2022-12-18T11:54:51.449Z,13.90
2022-12-18T11:57:47.248Z,13.70
2022-12-18T12:00:21.174Z,14.30
2022-12-18T12:03:19.819Z,13.80
2022-12-18T12:06:02.258Z,15.07
2022-12-18T12:08:48.768Z,14.50
2022-12-18T12:11:34.060Z,18.17
2022-12-18T12:14:01.872Z,16.33
2022-12-18T12:17:14.551Z,15.70
2022-12-18T12:19:48.584Z,18.98
2022-12-18T12:22:58.008Z,16.00
2022-12-18T12:25:39.282Z,20.73
2022-12-18T12:28:19.405Z,19.83
2022-12-18T12:30:57.520Z,17.10
2022-12-18T12:33:44.361Z,14.85
2022-12-18T12:36:21.400Z,16.80
2022-12-18T12:38:58.565Z,12.43
2022-12-18T12:44:23.273Z,10.93
2022-12-18T12:46:56.286Z,9.23
2022-12-18T12:49:29.090Z,11.63
2022-12-18T12:52:08.820Z,12.02
2022-12-18T12:54:37.771Z,17.13
2022-12-18T12:57:44.119Z,18.58
2022-12-18T13:00:18.098Z,17.45
2022-12-18T13:03:14.325Z,15.95
2022-12-18T13:05:47.851Z,16.38
2022-12-18T13:08:33.988Z,13.93
2022-12-18T13:11:22.413Z,18.63
2022-12-18T13:13:57.959Z,15.77
2022-12-18T13:16:28.608Z,16.98
2022-12-18T13:18:59.984Z,16.33
2022-12-18T13:21:34.723Z,16.92
2022-12-18T13:24:26.767Z,20.70
2022-12-18T13:26:55.332Z,22.33
2022-12-18T13:29:45.559Z,22.90
2022-12-18T13:32:26.639Z,18.08
2022-12-18T13:35:35.485Z,18.33
2022-12-18T13:38:27.231Z,17.52
2022-12-18T13:40:56.907Z,18.90
2022-12-18T13:43:46.519Z,23.30
2022-12-18T13:46:48.727Z,20.13
2022-12-18T13:49:45.539Z,16.48
2022-12-18T13:52:23.910Z,16.45
2022-12-18T13:55:19.393Z,13.25
2022-12-18T13:57:47.721Z,18.85
2022-12-18T14:00:26.464Z,18.08
2022-12-18T14:02:54.356Z,13.77
2022-12-18T14:05:23.819Z,13.88
2022-12-18T14:07:53.097Z,15.13
2022-12-18T14:13:12.561Z,18.13
2022-12-18T14:15:43.943Z,15.63
2022-12-18T14:18:30.689Z,16.55
2022-12-18T14:21:01.048Z,15.05
2022-12-18T14:23:41.375Z,13.95
2022-12-18T14:26:30.469Z,16.33
2022-12-18T14:29:21.665Z,13.55
2022-12-18T14:32:17.022Z,10.93
2022-12-18T14:34:51.127Z,13.13
2022-12-18T14:37:24.227Z,11.48
2022-12-18T14:40:10.548Z,12.57
2022-12-18T14:42:39.585Z,13.53
2022-12-18T14:45:40.984Z,12.27
2022-12-18T14:48:21.571Z,13.05
2022-12-18T14:51:20.210Z,18.92
2022-12-18T14:54:15.509Z,19.13
2022-12-18T14:56:49.884Z,38.00
2022-12-18T14:59:25.198Z,32.28
2022-12-18T15:02:09.855Z,22.38
2022-12-18T15:04:43.006Z,20.08
2022-12-18T15:07:12.508Z,16.55
2022-12-18T15:09:43.001Z,16.05
2022-12-18T15:12:35.425Z,14.95
2022-12-18T15:15:05.408Z,10.13
2022-12-18T15:17:34.270Z,12.93
2022-12-18T15:20:10.381Z,10.85
2022-12-18T15:22:39.733Z,8.90
2022-12-18T15:25:37.905Z,12.68
2022-12-18T15:28:19.865Z,12.50
2022-12-18T15:31:05.526Z,8.82
2022-12-18T15:33:55.380Z,12.43
2022-12-18T15:36:26.334Z,8.23
2022-12-18T15:39:04.676Z,11.43
2022-12-18T15:41:38.206Z,16.50
2022-12-18T15:44:26.534Z,14.98
2022-12-18T15:46:54.350Z,15.77
2022-12-18T15:49:22.168Z,11.13
2022-12-18T15:51:55.828Z,11.75
2022-12-18T15:54:44.007Z,10.60
2022-12-18T15:57:24.814Z,13.73
2022-12-18T15:59:54.534Z,11.57
2022-12-18T16:02:24.334Z,10.95
2022-12-18T16:04:53.406Z,9.98
2022-12-18T16:07:25.189Z,11.45
2022-12-18T16:09:53.688Z,11.02
2022-12-18T16:12:23.748Z,11.80
2022-12-18T16:14:52.114Z,9.02
2022-12-18T16:17:20.140Z,9.07
2022-12-18T16:19:48.025Z,16.00
2022-12-18T16:22:24.564Z,15.02
2022-12-18T16:24:54.054Z,14.07
2022-12-18T16:27:22.838Z,14.93
2022-12-18T16:29:51.680Z,14.02
2022-12-18T16:32:22.009Z,14.10
2022-12-18T16:34:51.369Z,13.88
2022-12-18T16:37:19.380Z,12.55
2022-12-18T16:39:47.571Z,13.00
2022-12-18T16:42:20.720Z,14.80
2022-12-18T16:44:50.665Z,13.23
2022-12-18T16:47:19.135Z,10.20
2022-12-18T16:49:47.162Z,12.10
2022-12-18T16:52:15.386Z,14.73
2022-12-18T16:54:43.257Z,14.38
2022-12-18T16:57:16.010Z,11.98
2022-12-18T16:59:44.023Z,13.73
2022-12-18T17:02:24.591Z,12.23
2022-12-18T17:04:57.303Z,18.35
2022-12-18T17:07:26.295Z,25.77
2022-12-18T17:09:54.437Z,36.53
2022-12-18T17:12:24.127Z,68.72
2022-12-18T17:14:51.916Z,79.20
2022-12-18T17:17:21.947Z,109.20
2022-12-18T17:19:51.732Z,100.93
2022-12-18T17:22:20.380Z,76.53
2022-12-18T17:24:48.341Z,64.53
2022-12-18T17:27:16.446Z,45.78
2022-12-18T17:29:47.735Z,42.20
2022-12-18T17:32:17.382Z,41.00
2022-12-18T17:34:45.423Z,45.42
2022-12-18T17:37:13.378Z,35.95
2022-12-18T17:39:42.165Z,37.88
2022-12-18T17:42:14.784Z,38.30
2022-12-18T17:44:44.359Z,37.42
2022-12-18T17:47:13.820Z,32.30
2022-12-18T17:49:41.657Z,37.30
2022-12-18T17:52:09.910Z,35.83
2022-12-18T17:54:39.998Z,30.52
2022-12-18T17:57:10.552Z,34.92
2022-12-18T17:59:38.682Z,30.15
2022-12-18T18:02:06.700Z,32.85
2022-12-18T18:04:36.145Z,26.85
2022-12-18T18:07:03.930Z,27.55
2022-12-18T18:09:33.348Z,22.40
2022-12-18T18:12:19.804Z,21.70
2022-12-18T18:14:47.888Z,19.13
2022-12-18T18:17:16.007Z,18.27
2022-12-18T18:19:46.773Z,17.10
2022-12-18T18:22:17.829Z,15.50
2022-12-18T18:24:47.116Z,20.63
2022-12-18T18:27:15.216Z,21.58
2022-12-18T18:29:43.438Z,22.52
2022-12-18T18:32:11.328Z,22.55
2022-12-18T18:34:41.281Z,18.90
2022-12-18T18:37:10.510Z,17.13
2022-12-18T18:39:38.580Z,16.25
2022-12-18T18:42:06.645Z,15.15
2022-12-18T18:44:34.427Z,15.52
2022-12-18T18:47:02.836Z,20.60
2022-12-18T18:49:34.888Z,18.33
2022-12-18T18:52:03.926Z,22.90
2022-12-18T18:54:31.768Z,23.48
2022-12-18T19:04:46.517Z,31.38
2022-12-18T19:07:24.327Z,26.08
2022-12-18T19:10:04.288Z,27.50
2022-12-18T19:12:52.686Z,27.50
2022-12-18T19:15:22.926Z,20.75
2022-12-18T19:17:50.961Z,22.05
2022-12-18T19:20:19.594Z,20.35
2022-12-18T19:22:55.217Z,18.40
2022-12-18T19:25:40.678Z,16.33
2022-12-18T19:28:15.344Z,15.85
2022-12-18T19:30:56.343Z,17.17
2022-12-18T19:36:12.429Z,13.75
2022-12-18T19:38:44.946Z,17.50
2022-12-18T19:41:15.726Z,19.95
2022-12-18T19:43:45.543Z,21.92
2022-12-18T19:46:16.330Z,15.38
2022-12-18T19:48:46.778Z,13.07
2022-12-18T19:51:18.185Z,12.07
2022-12-18T19:53:46.996Z,18.55
2022-12-18T19:56:21.331Z,17.45
2022-12-18T19:58:49.696Z,15.95
2022-12-18T20:01:19.021Z,14.13
2022-12-18T20:03:52.652Z,14.57
2022-12-18T20:06:31.604Z,14.55
2022-12-18T20:09:02.301Z,11.93
2022-12-18T20:11:31.209Z,12.63
2022-12-18T20:13:59.167Z,12.05
2022-12-18T20:16:27.095Z,13.60
2022-12-18T20:18:57.840Z,14.25
2022-12-18T20:21:26.439Z,23.98
2022-12-18T20:23:56.003Z,25.52
2022-12-18T20:26:25.012Z,23.17
2022-12-18T20:28:54.388Z,24.10
2022-12-18T20:31:23.025Z,23.58
2022-12-18T20:33:52.175Z,26.70
2022-12-18T20:36:23.367Z,25.23
2022-12-18T20:38:57.238Z,18.98
2022-12-18T20:41:35.035Z,15.50
2022-12-18T20:44:23.134Z,14.82
2022-12-18T20:46:57.028Z,12.63
2022-12-18T20:49:27.471Z,10.02
2022-12-18T20:51:57.335Z,10.70
2022-12-18T20:54:27.387Z,12.90
2022-12-18T20:56:58.345Z,10.60
2022-12-18T20:59:29.183Z,10.50
2022-12-18T21:01:57.174Z,10.65
2022-12-18T21:04:26.450Z,10.63
2022-12-18T21:07:02.103Z,12.75
2022-12-18T21:09:37.721Z,18.52
2022-12-18T21:12:40.317Z,22.73
2022-12-18T21:15:12.040Z,17.00
2022-12-18T21:17:44.605Z,13.68
2022-12-18T21:20:17.521Z,13.40
2022-12-18T21:22:47.150Z,12.73
2022-12-18T21:25:15.236Z,12.13
2022-12-18T21:27:43.169Z,12.75
2022-12-18T21:30:15.116Z,13.25
2022-12-18T21:32:44.264Z,12.43
2022-12-18T21:35:12.082Z,14.93
2022-12-18T21:37:40.082Z,25.00
2022-12-18T21:40:08.814Z,28.13
2022-12-18T21:42:55.265Z,24.80
2022-12-18T21:45:23.106Z,20.42
2022-12-18T21:47:51.012Z,19.90
2022-12-18T21:50:18.855Z,19.55
2022-12-18T21:52:46.579Z,20.40
2022-12-18T21:55:14.292Z,16.50
2022-12-18T21:57:42.187Z,16.35
2022-12-18T22:00:18.174Z,13.18
2022-12-18T22:05:17.324Z,13.23
2022-12-18T22:07:46.265Z,13.00
2022-12-18T22:10:14.127Z,14.20
2022-12-18T22:12:43.940Z,13.02
2022-12-18T22:15:18.313Z,12.43
2022-12-18T22:20:30.037Z,14.07
2022-12-18T22:22:58.460Z,13.55
2022-12-18T22:25:26.572Z,13.43
2022-12-18T22:28:12.851Z,13.43
2022-12-18T22:30:40.784Z,13.13
2022-12-18T22:33:08.651Z,13.20
2022-12-18T22:35:36.768Z,13.70
2022-12-18T22:38:05.022Z,13.40
2022-12-18T22:40:32.718Z,11.60
2022-12-18T22:43:00.410Z,11.25
2022-12-18T22:45:28.242Z,10.38
2022-12-18T22:47:56.284Z,10.57
2022-12-18T22:50:24.180Z,9.73
2022-12-18T22:52:51.967Z,10.05
2022-12-18T22:55:19.960Z,9.50
2022-12-18T22:57:48.698Z,9.02
2022-12-18T23:00:19.886Z,9.30
2022-12-18T23:03:00.351Z,9.07
2022-12-18T23:05:30.363Z,10.23
2022-12-18T23:07:59.257Z,10.32
2022-12-18T23:10:27.770Z,8.55
2022-12-18T23:12:55.611Z,7.05
2022-12-18T23:15:27.854Z,8.38
2022-12-18T23:17:58.210Z,9.00
2022-12-18T23:20:27.530Z,7.53
2022-12-18T23:22:55.466Z,5.90
2022-12-18T23:25:25.089Z,6.25
2022-12-18T23:27:53.045Z,5.72
2022-12-18T23:30:21.161Z,5.40
2022-12-18T23:32:48.911Z,6.50
2022-12-18T23:35:17.626Z,5.35
2022-12-18T23:37:58.796Z,6.13
2022-12-18T23:40:29.015Z,7.00
2022-12-18T23:42:57.032Z,6.88
2022-12-18T23:45:24.797Z,5.63
2022-12-18T23:47:52.444Z,6.25
2022-12-18T23:50:23.779Z,6.43
2022-12-18T23:52:57.450Z,6.93
2022-12-18T23:55:32.968Z,5.75
2022-12-18T23:58:00.777Z,4.88
